Time;durP1;ratioP1;P1;durP2;ratioP2;P2;SDS_P1;SDS_P2;PMS_P1;PMS_P2;Temp;Humidity;BMP_temperature;BMP_pressure;BME280_temperature;BME280_humidity;BME280_pressure;Samples;Min_cycle;Max_cycle;Signal;HPM_P1;HPM_P2
2022/05/24 00:01:52;;;;;;;;;;;17.40;89.80;;;;;;5064024;28;19924;-74
2022/05/24 00:04:18;;;;;;;;;;;17.40;89.20;;;;;;5066736;28;20425;-73
2022/05/24 00:06:43;;;;;;;;;;;17.40;89.50;;;;;;5063647;28;20456;-74
2022/05/24 00:09:09;;;;;;;;;;;17.40;89.60;;;;;;5044165;28;19913;-74
2022/05/24 00:11:34;;;;;;;;;;;17.40;89.40;;;;;;5052859;28;19916;-73
2022/05/24 00:14:00;;;;;;;;;;;17.40;90.10;;;;;;5066919;28;20258;-74
2022/05/24 00:16:26;;;;;;;;;;;17.40;89.50;;;;;;5057231;28;19918;-73
2022/05/24 00:18:52;;;;;;;;;;;17.40;89.60;;;;;;5066452;28;20250;-74
2022/05/24 00:21:17;;;;;;;;;;;17.30;89.40;;;;;;5063533;28;19917;-73
2022/05/24 00:23:43;;;;;;;;;;;17.30;89.70;;;;;;5048790;28;19959;-74
2022/05/24 00:26:09;;;;;;;;;;;17.30;89.90;;;;;;5064049;28;19909;-73
2022/05/24 00:28:35;;;;;;;;;;;17.30;89.70;;;;;;4990400;28;1786621;-73
2022/05/24 00:31:01;;;;;;;;;;;17.30;89.70;;;;;;5047125;28;19913;-73
2022/05/24 00:33:27;;;;;;;;;;;17.30;89.60;;;;;;5061473;28;20624;-73
2022/05/24 00:35:53;;;;;;;;;;;17.30;89.90;;;;;;5066624;28;19916;-73
2022/05/24 00:38:38;;;;;;;;;;;17.30;89.90;;;;;;5056479;28;19944;-74
2022/05/24 00:41:12;;;;;;;;;;;17.30;90.00;;;;;;5026943;28;19963;-73
2022/05/24 00:43:37;;;;;;;;;;;17.30;89.70;;;;;;5056303;28;19916;-73
2022/05/24 00:46:23;;;;;;;;;;;17.20;89.80;;;;;;5057535;28;20377;-74
2022/05/24 00:48:55;;;;;;;;;;;17.20;89.70;;;;;;5060607;28;20396;-73
2022/05/24 00:51:24;;;;;;;;;;;17.20;89.80;;;;;;5065805;28;20605;-74
2022/05/24 00:53:52;;;;;;;;;;;17.20;90.00;;;;;;5062783;28;19916;-73
2022/05/24 00:56:21;;;;;;;;;;;17.10;89.70;;;;;;5066916;28;19913;-73
2022/05/24 00:59:02;;;;;;;;;;;17.20;89.90;;;;;;5064683;28;19956;-73
2022/05/24 01:01:31;;;;;;;;;;;17.10;89.80;;;;;;5067276;28;20696;-73
2022/05/24 01:03:56;;;;;;;;;;;17.20;89.90;;;;;;5064396;28;19920;-73
2022/05/24 01:06:22;;;;;;;;;;;17.10;89.80;;;;;;5066772;28;19912;-73
2022/05/24 01:08:48;;;;;;;;;;;17.10;90.00;;;;;;5050269;28;20361;-74
2022/05/24 01:11:13;;;;;;;;;;;17.10;90.00;;;;;;5046796;28;19917;-73
2022/05/24 01:13:39;;;;;;;;;;;17.10;89.90;;;;;;5047846;28;19923;-73
2022/05/24 01:16:06;;;;;;;;;;;17.10;90.00;;;;;;5056501;28;19955;-73
2022/05/24 01:18:31;;;;;;;;;;;17.10;90.10;;;;;;5048004;28;19955;-74
2022/05/24 01:21:02;;;;;;;;;;;17.10;90.00;;;;;;5066072;28;20385;-74
2022/05/24 01:23:36;;;;;;;;;;;17.10;90.00;;;;;;5063544;28;19913;-73
2022/05/24 01:26:02;;;;;;;;;;;17.00;90.00;;;;;;5048414;28;19919;-73
2022/05/24 01:28:33;;;;;;;;;;;17.10;89.90;;;;;;5066313;28;20628;-73
2022/05/24 01:31:00;;;;;;;;;;;17.00;89.90;;;;;;5046783;28;19982;-74
2022/05/24 01:36:10;;;;;;;;;;;17.00;90.00;;;;;;5065172;28;19924;-74
2022/05/24 01:38:41;;;;;;;;;;;17.00;90.10;;;;;;5056628;28;19912;-74
2022/05/24 01:41:07;;;;;;;;;;;17.00;90.10;;;;;;5060732;28;19916;-74
2022/05/24 01:43:32;;;;;;;;;;;17.00;90.10;;;;;;5066199;28;19919;-74
2022/05/24 01:46:03;;;;;;;;;;;17.00;90.20;;;;;;5036239;28;19917;-74
2022/05/24 01:48:32;;;;;;;;;;;17.00;90.10;;;;;;5046663;28;19915;-73
2022/05/24 01:50:59;;;;;;;;;;;17.00;90.00;;;;;;5057994;28;19917;-73
2022/05/24 01:53:30;;;;;;;;;;;16.90;90.00;;;;;;5053769;28;20369;-73
2022/05/24 01:55:58;;;;;;;;;;;16.90;90.10;;;;;;5055627;28;20262;-74
2022/05/24 01:58:26;;;;;;;;;;;16.90;90.20;;;;;;5066120;28;20380;-73
2022/05/24 02:00:55;;;;;;;;;;;16.90;90.20;;;;;;5060759;28;20550;-73
2022/05/24 02:03:21;;;;;;;;;;;16.90;90.00;;;;;;5046860;28;19912;-74
2022/05/24 02:05:46;;;;;;;;;;;16.90;90.10;;;;;;5047290;28;19912;-73
2022/05/24 02:08:12;;;;;;;;;;;16.90;90.40;;;;;;5049296;28;19913;-73
2022/05/24 02:10:53;;;;;;;;;;;16.90;90.20;;;;;;5048895;28;19916;-73
2022/05/24 02:13:23;;;;;;;;;;;16.90;90.10;;;;;;5065488;28;19912;-73
2022/05/24 02:15:49;;;;;;;;;;;16.90;90.10;;;;;;5061497;28;19939;-73
2022/05/24 02:18:17;;;;;;;;;;;16.90;90.20;;;;;;5065681;28;19916;-74
2022/05/24 02:20:44;;;;;;;;;;;16.80;90.20;;;;;;5050353;28;19925;-74
2022/05/24 02:23:11;;;;;;;;;;;16.80;90.20;;;;;;5065693;28;19951;-73
2022/05/24 02:25:45;;;;;;;;;;;16.80;90.20;;;;;;5064833;28;19912;-73
2022/05/24 02:28:11;;;;;;;;;;;16.80;90.20;;;;;;5064178;28;20399;-73
2022/05/24 02:30:42;;;;;;;;;;;16.80;90.30;;;;;;5065392;28;20416;-73
2022/05/24 02:33:07;;;;;;;;;;;16.80;90.30;;;;;;5044783;28;19924;-74
2022/05/24 02:35:33;;;;;;;;;;;16.80;90.30;;;;;;5059445;28;20261;-73
2022/05/24 02:37:59;;;;;;;;;;;16.80;90.30;;;;;;5057703;28;19921;-74
2022/05/24 02:43:08;;;;;;;;;;;16.80;90.30;;;;;;5058148;28;20009;-73
2022/05/24 02:45:34;;;;;;;;;;;16.80;90.30;;;;;;5065275;28;19958;-73
2022/05/24 02:47:59;;;;;;;;;;;16.70;90.30;;;;;;5062752;28;19921;-73
2022/05/24 02:50:26;;;;;;;;;;;16.70;90.30;;;;;;5065264;28;20013;-73
2022/05/24 02:52:52;;;;;;;;;;;16.70;90.40;;;;;;5054379;28;19913;-73
2022/05/24 02:55:17;;;;;;;;;;;16.70;90.30;;;;;;5045065;28;19946;-73
2022/05/24 02:57:43;;;;;;;;;;;16.70;90.30;;;;;;5051083;28;20187;-73
2022/05/24 03:00:11;;;;;;;;;;;16.70;90.40;;;;;;5069223;28;19956;-74
2022/05/24 03:02:37;;;;;;;;;;;16.70;90.40;;;;;;5054068;28;19920;-73
2022/05/24 03:05:03;;;;;;;;;;;16.70;90.30;;;;;;5069218;28;19985;-74
2022/05/24 03:10:13;;;;;;;;;;;16.60;90.30;;;;;;5050816;28;19948;-73
2022/05/24 03:15:22;;;;;;;;;;;16.60;90.40;;;;;;5068544;28;19966;-73
2022/05/24 03:17:47;;;;;;;;;;;16.60;90.30;;;;;;5050285;28;19920;-74
2022/05/24 03:20:13;;;;;;;;;;;16.60;90.40;;;;;;5055363;28;19913;-74
2022/05/24 03:22:38;;;;;;;;;;;16.60;90.50;;;;;;5049093;28;20427;-73
2022/05/24 03:25:04;;;;;;;;;;;16.50;90.20;;;;;;5064429;28;19935;-74
2022/05/24 03:27:30;;;;;;;;;;;16.50;90.40;;;;;;5068540;28;19921;-73
2022/05/24 03:29:55;;;;;;;;;;;16.50;90.40;;;;;;5052607;28;19917;-73
2022/05/24 03:32:21;;;;;;;;;;;16.50;90.40;;;;;;5048260;28;20408;-73
2022/05/24 03:34:46;;;;;;;;;;;16.50;90.50;;;;;;5056728;28;19976;-73
2022/05/24 03:37:12;;;;;;;;;;;16.50;90.50;;;;;;5050315;28;19912;-73
2022/05/24 03:39:37;;;;;;;;;;;16.50;90.40;;;;;;5057217;28;20567;-73
2022/05/24 03:42:03;;;;;;;;;;;16.50;90.30;;;;;;5068598;28;19918;-73
2022/05/24 03:44:29;;;;;;;;;;;16.50;90.40;;;;;;5065962;28;19947;-74
2022/05/24 03:46:54;;;;;;;;;;;16.50;90.40;;;;;;5068169;28;20006;-73
2022/05/24 03:49:20;;;;;;;;;;;16.50;90.70;;;;;;5047868;28;20292;-73
2022/05/24 03:51:46;;;;;;;;;;;16.50;90.40;;;;;;5068355;28;19912;-73
2022/05/24 03:54:12;;;;;;;;;;;16.40;90.40;;;;;;5047455;28;19993;-73
2022/05/24 03:56:38;;;;;;;;;;;16.40;90.20;;;;;;5067867;28;19919;-73
2022/05/24 03:59:04;;;;;;;;;;;16.40;90.10;;;;;;5068280;28;20018;-73
2022/05/24 04:01:30;;;;;;;;;;;16.40;90.20;;;;;;5065628;28;20014;-73
2022/05/24 04:03:55;;;;;;;;;;;16.40;90.30;;;;;;5068437;28;19916;-73
2022/05/24 04:06:21;;;;;;;;;;;16.40;90.30;;;;;;5064960;28;19924;-73
2022/05/24 04:08:47;;;;;;;;;;;16.40;90.30;;;;;;5047329;28;19919;-74
2022/05/24 04:11:12;;;;;;;;;;;16.40;90.30;;;;;;5057830;28;20406;-73
2022/05/24 04:13:40;;;;;;;;;;;16.30;90.20;;;;;;5054650;28;19913;-73
2022/05/24 04:16:06;;;;;;;;;;;16.30;90.20;;;;;;5055209;28;19916;-73
2022/05/24 04:18:31;;;;;;;;;;;16.30;90.30;;;;;;5067539;28;19923;-73
2022/05/24 04:20:57;;;;;;;;;;;16.30;90.30;;;;;;5064828;28;20409;-73
2022/05/24 04:23:25;;;;;;;;;;;16.30;90.00;;;;;;5067751;28;19916;-73
2022/05/24 04:25:51;;;;;;;;;;;16.30;90.10;;;;;;5065358;28;19918;-73
2022/05/24 04:28:19;;;;;;;;;;;16.30;90.20;;;;;;5067732;28;19962;-73
2022/05/24 04:30:46;;;;;;;;;;;16.20;90.20;;;;;;5065228;28;19909;-73
2022/05/24 04:33:12;;;;;;;;;;;16.30;90.10;;;;;;5067778;28;20598;-73
2022/05/24 04:35:37;;;;;;;;;;;16.20;90.20;;;;;;5067285;28;19913;-74
2022/05/24 04:38:03;;;;;;;;;;;16.20;90.00;;;;;;5059490;28;20007;-73
2022/05/24 04:43:12;;;;;;;;;;;16.20;90.10;;;;;;5064185;28;19923;-73
2022/05/24 04:45:38;;;;;;;;;;;16.20;90.00;;;;;;5067449;28;20508;-73
2022/05/24 04:48:05;;;;;;;;;;;16.20;89.60;;;;;;5064900;28;19932;-73
2022/05/24 04:50:31;;;;;;;;;;;16.20;90.00;;;;;;5067745;28;19913;-73
2022/05/24 04:52:56;;;;;;;;;;;16.20;90.00;;;;;;5055981;28;19919;-73
2022/05/24 04:55:22;;;;;;;;;;;16.20;90.00;;;;;;5047052;28;20413;-73
2022/05/24 04:57:47;;;;;;;;;;;16.20;90.00;;;;;;5055655;28;19922;-73
2022/05/24 05:00:14;;;;;;;;;;;16.20;89.90;;;;;;5067620;28;19913;-73
2022/05/24 05:02:40;;;;;;;;;;;16.20;90.00;;;;;;5064533;28;19913;-73
2022/05/24 05:05:06;;;;;;;;;;;16.20;90.00;;;;;;5067007;28;19913;-74
2022/05/24 05:07:32;;;;;;;;;;;16.20;89.90;;;;;;5062538;28;19963;-73
2022/05/24 05:09:58;;;;;;;;;;;16.20;89.90;;;;;;5048928;28;19916;-73
2022/05/24 05:12:26;;;;;;;;;;;16.20;89.90;;;;;;5046687;28;19916;-73
2022/05/24 05:14:52;;;;;;;;;;;16.20;90.00;;;;;;5067005;28;20011;-73
2022/05/24 05:17:18;;;;;;;;;;;16.10;89.60;;;;;;5035562;28;19913;-73
2022/05/24 05:19:44;;;;;;;;;;;16.10;89.90;;;;;;5064991;28;20322;-73
2022/05/24 05:22:10;;;;;;;;;;;16.10;89.70;;;;;;5067029;28;20011;-73
2022/05/24 05:24:35;;;;;;;;;;;16.10;89.60;;;;;;5046127;28;19916;-73
2022/05/24 05:27:01;;;;;;;;;;;16.10;89.60;;;;;;5066536;28;19927;-73
2022/05/24 05:32:16;;;;;;;;;;;16.10;89.90;;;;;;5047150;28;20033;-74
2022/05/24 05:34:41;;;;;;;;;;;16.10;90.00;;;;;;5059163;28;19958;-73
2022/05/24 05:37:07;;;;;;;;;;;16.00;90.00;;;;;;5066411;28;20389;-73
2022/05/24 05:39:34;;;;;;;;;;;16.00;89.60;;;;;;5048243;28;19923;-73
2022/05/24 05:42:01;;;;;;;;;;;16.00;89.40;;;;;;5048222;28;19940;-74
2022/05/24 05:44:28;;;;;;;;;;;16.00;90.00;;;;;;5063824;28;19916;-74
2022/05/24 05:46:53;;;;;;;;;;;16.00;90.10;;;;;;5064589;28;20483;-74
2022/05/24 05:49:19;;;;;;;;;;;15.90;89.80;;;;;;5063559;28;19912;-74
2022/05/24 05:51:44;;;;;;;;;;;16.00;89.80;;;;;;5066015;28;20094;-74
2022/05/24 05:54:10;;;;;;;;;;;15.90;89.20;;;;;;5030222;28;19927;-73
2022/05/24 05:56:35;;;;;;;;;;;15.90;90.00;;;;;;5047693;28;19912;-74
2022/05/24 05:59:01;;;;;;;;;;;15.90;90.10;;;;;;5062949;28;20449;-73
2022/05/24 06:01:31;;;;;;;;;;;15.90;90.00;;;;;;5027963;28;20934;-74
2022/05/24 06:03:57;;;;;;;;;;;15.90;89.70;;;;;;5038084;28;19920;-73
2022/05/24 06:06:24;;;;;;;;;;;15.90;90.10;;;;;;5045594;28;19942;-74
2022/05/24 06:08:49;;;;;;;;;;;15.90;90.00;;;;;;5043346;28;19909;-74
2022/05/24 06:11:15;;;;;;;;;;;15.90;90.00;;;;;;5059122;28;19923;-73
2022/05/24 06:13:41;;;;;;;;;;;15.90;90.00;;;;;;5065602;28;20484;-73
2022/05/24 06:16:08;;;;;;;;;;;15.80;90.00;;;;;;5062190;28;20024;-73
2022/05/24 06:18:33;;;;;;;;;;;15.90;89.90;;;;;;5065039;28;19920;-73
2022/05/24 06:20:59;;;;;;;;;;;15.80;89.90;;;;;;5061918;28;20430;-73
2022/05/24 06:23:24;;;;;;;;;;;15.80;89.90;;;;;;5065723;28;19917;-73
2022/05/24 06:25:51;;;;;;;;;;;15.80;89.70;;;;;;5061723;28;19921;-73
2022/05/24 06:28:17;;;;;;;;;;;15.80;90.10;;;;;;5064721;28;20651;-73
2022/05/24 06:30:43;;;;;;;;;;;15.70;89.80;;;;;;5061944;28;19924;-73
2022/05/24 06:33:08;;;;;;;;;;;15.80;89.80;;;;;;5064698;28;19913;-73
2022/05/24 06:35:35;;;;;;;;;;;15.70;90.00;;;;;;5062554;28;19916;-74
2022/05/24 06:38:00;;;;;;;;;;;15.80;90.00;;;;;;5060797;28;19913;-74
2022/05/24 06:40:26;;;;;;;;;;;15.80;90.00;;;;;;5045465;28;19920;-74
2022/05/24 06:42:51;;;;;;;;;;;15.80;90.00;;;;;;5062136;28;19923;-74
2022/05/24 06:45:17;;;;;;;;;;;15.70;90.00;;;;;;5065361;28;19913;-73
2022/05/24 06:47:42;;;;;;;;;;;15.70;89.70;;;;;;5062569;28;19916;-72
2022/05/24 06:50:08;;;;;;;;;;;15.70;89.90;;;;;;5065481;28;19913;-73
2022/05/24 06:52:34;;;;;;;;;;;15.70;89.70;;;;;;5056888;28;20399;-73
2022/05/24 06:54:59;;;;;;;;;;;15.70;90.00;;;;;;5045330;28;19954;-73
2022/05/24 06:57:25;;;;;;;;;;;15.70;89.80;;;;;;5053478;28;20375;-73
2022/05/24 07:02:34;;;;;;;;;;;15.70;90.10;;;;;;5058301;28;19930;-73
2022/05/24 07:05:01;;;;;;;;;;;15.70;90.10;;;;;;5048626;28;19909;-73
2022/05/24 07:07:28;;;;;;;;;;;15.70;90.00;;;;;;5048860;28;20027;-73
2022/05/24 07:09:53;;;;;;;;;;;15.70;90.00;;;;;;5047263;28;19913;-73
2022/05/24 07:12:19;;;;;;;;;;;15.70;90.00;;;;;;5046325;28;19919;-73
2022/05/24 07:14:45;;;;;;;;;;;15.70;89.50;;;;;;5065331;28;19913;-73
2022/05/24 07:17:10;;;;;;;;;;;15.70;90.00;;;;;;5061790;28;19920;-73
2022/05/24 07:19:38;;;;;;;;;;;15.70;89.50;;;;;;5049506;28;19921;-74
2022/05/24 07:22:07;;;;;;;;;;;15.70;89.70;;;;;;5065128;28;19920;-73
2022/05/24 07:24:33;;;;;;;;;;;15.70;89.50;;;;;;5062300;28;20449;-73
2022/05/24 07:26:58;;;;;;;;;;;15.80;89.60;;;;;;5026567;28;19931;-73
2022/05/24 07:29:24;;;;;;;;;;;15.80;89.60;;;;;;5057075;28;19920;-73
2022/05/24 07:31:50;;;;;;;;;;;15.80;89.20;;;;;;5065013;28;19966;-73
2022/05/24 07:34:15;;;;;;;;;;;15.80;89.70;;;;;;5062279;28;20246;-73
2022/05/24 07:36:41;;;;;;;;;;;15.90;89.50;;;;;;5064794;28;19912;-74
2022/05/24 07:39:07;;;;;;;;;;;15.90;89.60;;;;;;5053223;28;19921;-73
2022/05/24 07:47:03;;;;;;;;;;;15.90;89.10;;;;;;5068086;28;20037;-73
2022/05/24 07:49:28;;;;;;;;;;;16.00;89.30;;;;;;5065827;28;20395;-73
2022/05/24 07:51:54;;;;;;;;;;;16.00;89.20;;;;;;5068362;28;20003;-74
2022/05/24 07:54:19;;;;;;;;;;;15.90;89.30;;;;;;5043261;28;19963;-73
2022/05/24 07:56:45;;;;;;;;;;;15.90;89.20;;;;;;5068074;28;20023;-74
2022/05/24 07:59:10;;;;;;;;;;;16.00;89.20;;;;;;5053758;28;19927;-74
2022/05/24 08:01:36;;;;;;;;;;;15.90;89.00;;;;;;5068366;28;20284;-73
2022/05/24 08:04:02;;;;;;;;;;;16.00;89.20;;;;;;5060068;28;19921;-74
2022/05/24 08:06:28;;;;;;;;;;;16.00;89.10;;;;;;5068063;28;19920;-74
2022/05/24 08:08:53;;;;;;;;;;;16.00;88.70;;;;;;5057408;28;19917;-73
2022/05/24 08:11:19;;;;;;;;;;;15.90;89.10;;;;;;5066212;28;19999;-74
2022/05/24 08:13:44;;;;;;;;;;;16.00;89.00;;;;;;5068041;28;19912;-73
2022/05/24 08:16:10;;;;;;;;;;;16.00;88.40;;;;;;5063963;28;19916;-73
2022/05/24 08:18:35;;;;;;;;;;;16.00;88.60;;;;;;5066592;28;19952;-74
2022/05/24 08:21:01;;;;;;;;;;;16.10;88.50;;;;;;5063580;28;20675;-74
2022/05/24 08:23:27;;;;;;;;;;;16.10;88.30;;;;;;5068090;28;19916;-73
2022/05/24 08:25:54;;;;;;;;;;;16.10;88.10;;;;;;5064825;28;20008;-73
2022/05/24 08:28:19;;;;;;;;;;;16.20;88.20;;;;;;5067837;28;19921;-73
2022/05/24 08:30:46;;;;;;;;;;;16.20;88.00;;;;;;5064865;28;20670;-73
2022/05/24 08:33:14;;;;;;;;;;;16.20;87.70;;;;;;5067477;28;19935;-73
2022/05/24 08:35:39;;;;;;;;;;;16.30;87.90;;;;;;5064532;28;19927;-73
2022/05/24 08:38:06;;;;;;;;;;;16.30;88.10;;;;;;5061747;28;19916;-73
2022/05/24 08:40:33;;;;;;;;;;;16.40;87.20;;;;;;5048111;28;20413;-72
2022/05/24 08:42:58;;;;;;;;;;;16.40;87.20;;;;;;5067305;28;19916;-72
2022/05/24 08:48:44;;;;;;;;;;;16.60;86.50;;;;;;5067191;28;20604;-73
2022/05/24 08:51:19;;;;;;;;;;;16.60;86.40;;;;;;5008771;28;20003;-73
2022/05/24 08:53:46;;;;;;;;;;;16.60;86.50;;;;;;5051333;28;19971;-72
2022/05/24 08:56:17;;;;;;;;;;;16.70;86.20;;;;;;5046150;28;19942;-73
2022/05/24 08:58:44;;;;;;;;;;;16.70;86.00;;;;;;5067092;28;19927;-73
2022/05/24 09:01:15;;;;;;;;;;;16.70;86.00;;;;;;5064371;28;19913;-74
2022/05/24 09:03:40;;;;;;;;;;;16.70;86.10;;;;;;5043524;28;20358;-73
2022/05/24 09:06:13;;;;;;;;;;;16.70;85.80;;;;;;5045819;28;19959;-74
2022/05/24 09:08:54;;;;;;;;;;;16.80;85.90;;;;;;5038997;28;19912;-73
2022/05/24 09:11:19;;;;;;;;;;;16.80;85.60;;;;;;5045223;28;19963;-73
2022/05/24 09:14:00;;;;;;;;;;;17.00;85.30;;;;;;5065738;28;19916;-73
2022/05/24 09:16:49;;;;;;;;;;;17.00;85.20;;;;;;5066585;28;19912;-73
2022/05/24 09:19:14;;;;;;;;;;;17.00;85.00;;;;;;5034958;28;19928;-73
2022/05/24 09:21:42;;;;;;;;;;;16.90;85.00;;;;;;5066567;28;20635;-73
2022/05/24 09:24:11;;;;;;;;;;;16.90;86.10;;;;;;5064650;28;20384;-73
2022/05/24 09:26:56;;;;;;;;;;;16.80;85.50;;;;;;5066004;28;20003;-73
2022/05/24 09:29:22;;;;;;;;;;;16.80;85.70;;;;;;5063983;28;19920;-73
2022/05/24 09:31:49;;;;;;;;;;;16.80;85.40;;;;;;5029128;28;19917;-73
2022/05/24 09:34:17;;;;;;;;;;;16.90;85.50;;;;;;5059431;28;20036;-73
2022/05/24 09:36:52;;;;;;;;;;;16.90;85.30;;;;;;5065860;28;19960;-73
2022/05/24 09:39:21;;;;;;;;;;;16.90;85.30;;;;;;5048011;28;19921;-73
2022/05/24 09:41:53;;;;;;;;;;;17.00;85.10;;;;;;5046223;28;19956;-73
2022/05/24 09:44:18;;;;;;;;;;;17.10;84.90;;;;;;5063608;28;19919;-73
2022/05/24 09:46:44;;;;;;;;;;;17.10;84.30;;;;;;5047930;28;19920;-73
2022/05/24 09:49:20;;;;;;;;;;;17.10;84.50;;;;;;5063620;28;19913;-73
2022/05/24 09:51:45;;;;;;;;;;;17.20;84.30;;;;;;5048028;28;20009;-73
2022/05/24 09:54:15;;;;;;;;;;;17.20;84.30;;;;;;5054022;28;20575;-73
2022/05/24 09:56:41;;;;;;;;;;;17.10;84.50;;;;;;5065385;28;20328;-73
2022/05/24 09:59:18;;;;;;;;;;;17.10;84.50;;;;;;5063402;28;19913;-73
2022/05/24 10:01:44;;;;;;;;;;;17.10;84.60;;;;;;5065675;28;19920;-73
2022/05/24 10:04:26;;;;;;;;;;;17.00;84.90;;;;;;5060830;28;19912;-73
2022/05/24 10:06:54;;;;;;;;;;;17.00;84.80;;;;;;5047501;28;19913;-73
2022/05/24 10:09:19;;;;;;;;;;;17.00;84.50;;;;;;5056101;28;20361;-73
2022/05/24 10:11:48;;;;;;;;;;;17.00;84.30;;;;;;5065455;28;19991;-73
2022/05/24 10:14:36;;;;;;;;;;;17.10;84.40;;;;;;5063134;28;19919;-73
2022/05/24 10:17:09;;;;;;;;;;;17.10;83.80;;;;;;5051919;28;19924;-73
2022/05/24 10:19:37;;;;;;;;;;;17.20;84.00;;;;;;5061886;28;20346;-74
2022/05/24 10:22:03;;;;;;;;;;;17.30;83.30;;;;;;5065596;28;20300;-73
2022/05/24 10:24:37;;;;;;;;;;;17.30;83.30;;;;;;5062796;28;19916;-73
2022/05/24 10:27:22;;;;;;;;;;;17.30;83.40;;;;;;5065275;28;20316;-73
2022/05/24 10:29:54;;;;;;;;;;;17.50;82.70;;;;;;5059755;28;20007;-73
2022/05/24 10:38:23;;;;;;;;;;;17.50;81.80;;;;;;5060079;28;19943;-73
2022/05/24 10:40:48;;;;;;;;;;;17.40;82.50;;;;;;5051139;28;20009;-73
2022/05/24 10:43:20;;;;;;;;;;;17.40;83.40;;;;;;5065462;28;20501;-73
2022/05/24 10:45:50;;;;;;;;;;;17.50;83.30;;;;;;5062339;28;19916;-73
2022/05/24 10:48:26;;;;;;;;;;;17.50;82.50;;;;;;5045268;28;19966;-73
2022/05/24 10:50:56;;;;;;;;;;;17.60;82.40;;;;;;5024954;28;19924;-73
2022/05/24 10:53:24;;;;;;;;;;;17.60;82.10;;;;;;5033021;28;19913;-73
2022/05/24 10:56:06;;;;;;;;;;;17.70;82.10;;;;;;5029735;28;19919;-73
2022/05/24 10:58:38;;;;;;;;;;;17.90;81.30;;;;;;5065191;28;19916;-73
2022/05/24 11:01:12;;;;;;;;;;;18.00;80.60;;;;;;5062388;28;19916;-73
2022/05/24 11:03:47;;;;;;;;;;;18.00;80.40;;;;;;5060189;28;19917;-73
2022/05/24 11:06:13;;;;;;;;;;;18.00;79.90;;;;;;5046614;28;19916;-73
2022/05/24 11:08:50;;;;;;;;;;;18.10;79.20;;;;;;5056980;28;19940;-73
2022/05/24 11:11:34;;;;;;;;;;;18.30;79.50;;;;;;5045408;28;20532;-73
2022/05/24 11:14:23;;;;;;;;;;;18.30;78.80;;;;;;5046827;28;20697;-73
2022/05/24 11:16:50;;;;;;;;;;;18.30;79.80;;;;;;5062046;28;19917;-73
2022/05/24 11:19:18;;;;;;;;;;;18.30;78.90;;;;;;5049062;28;19924;-74
2022/05/24 11:21:50;;;;;;;;;;;18.40;79.10;;;;;;5053401;28;19916;-73
2022/05/24 11:24:19;;;;;;;;;;;18.50;79.50;;;;;;5069428;28;19913;-73
2022/05/24 11:26:47;;;;;;;;;;;18.50;78.80;;;;;;5066270;28;20074;-73
2022/05/24 11:29:25;;;;;;;;;;;18.50;79.50;;;;;;5068226;28;19927;-74
2022/05/24 11:31:52;;;;;;;;;;;18.50;79.90;;;;;;5066772;28;19919;-73
2022/05/24 11:34:18;;;;;;;;;;;18.50;79.70;;;;;;5069454;28;19916;-73
2022/05/24 11:37:09;;;;;;;;;;;18.40;79.30;;;;;;5029718;28;20405;-73
2022/05/24 11:39:39;;;;;;;;;;;18.40;79.10;;;;;;5041947;28;20326;-74
2022/05/24 11:42:19;;;;;;;;;;;18.40;78.90;;;;;;5051402;28;19917;-73
2022/05/24 11:44:45;;;;;;;;;;;18.40;79.10;;;;;;5048899;28;20007;-73
2022/05/24 11:47:30;;;;;;;;;;;18.30;79.10;;;;;;5048658;28;20030;-73
2022/05/24 11:49:56;;;;;;;;;;;18.30;79.00;;;;;;5048964;28;20274;-73
2022/05/24 11:52:41;;;;;;;;;;;18.40;78.40;;;;;;5049058;28;20449;-73
2022/05/24 11:55:08;;;;;;;;;;;18.40;77.40;;;;;;5048588;28;19917;-73
2022/05/24 11:57:42;;;;;;;;;;;18.60;77.60;;;;;;5048862;28;20035;-73
2022/05/24 12:00:10;;;;;;;;;;;18.70;77.60;;;;;;5066802;28;20355;-73
2022/05/24 12:07:54;;;;;;;;;;;18.70;78.10;;;;;;5068048;28;20458;-73
2022/05/24 12:08:44;;;;;;;;;;;18.80;77.10;;;;;;5059991;28;20404;-73
2022/05/24 12:11:29;;;;;;;;;;;18.90;76.50;;;;;;4982817;28;19917;-73
2022/05/24 12:13:56;;;;;;;;;;;19.00;76.20;;;;;;5034255;28;19920;-73
2022/05/24 12:16:33;;;;;;;;;;;19.10;76.30;;;;;;5066462;28;19923;-73
2022/05/24 12:19:00;;;;;;;;;;;19.20;76.30;;;;;;5063243;28;19941;-73
2022/05/24 12:21:44;;;;;;;;;;;19.40;75.60;;;;;;5066319;28;20543;-73
2022/05/24 12:24:23;;;;;;;;;;;19.50;75.50;;;;;;5058590;28;19927;-73
2022/05/24 12:27:18;;;;;;;;;;;19.60;74.10;;;;;;5066950;28;20511;-73
2022/05/24 12:29:45;;;;;;;;;;;19.50;74.50;;;;;;5024552;28;20273;-73
2022/05/24 12:32:11;;;;;;;;;;;19.50;75.20;;;;;;5037522;28;20377;-73
2022/05/24 12:34:36;;;;;;;;;;;19.50;75.10;;;;;;5038891;28;19919;-74
2022/05/24 12:37:09;;;;;;;;;;;19.50;75.40;;;;;;5035831;28;19987;-73
2022/05/24 12:39:35;;;;;;;;;;;19.40;74.60;;;;;;5036066;28;20011;-74
2022/05/24 12:42:05;;;;;;;;;;;19.40;74.70;;;;;;5042302;28;19916;-73
2022/05/24 12:44:32;;;;;;;;;;;19.40;75.10;;;;;;5035786;28;19913;-73
2022/05/24 12:46:57;;;;;;;;;;;19.40;74.50;;;;;;5037947;28;19972;-73
2022/05/24 12:49:27;;;;;;;;;;;19.30;75.50;;;;;;5036563;28;19939;-74
2022/05/24 12:51:54;;;;;;;;;;;19.30;75.80;;;;;;5036134;28;19917;-73
2022/05/24 12:54:26;;;;;;;;;;;19.30;75.80;;;;;;5039876;28;20262;-73
2022/05/24 12:56:56;;;;;;;;;;;19.30;73.90;;;;;;5043028;28;19917;-74
2022/05/24 12:59:28;;;;;;;;;;;19.30;75.30;;;;;;5042949;28;19921;-73
2022/05/24 13:01:54;;;;;;;;;;;19.30;75.30;;;;;;5051320;28;19917;-74
2022/05/24 13:04:23;;;;;;;;;;;19.20;75.20;;;;;;5044048;28;19957;-73
2022/05/24 13:06:49;;;;;;;;;;;19.10;75.20;;;;;;5055435;28;19960;-73
2022/05/24 13:09:20;;;;;;;;;;;19.10;75.20;;;;;;5048803;28;20008;-74
2022/05/24 13:11:49;;;;;;;;;;;19.10;74.90;;;;;;5054457;28;19923;-74
2022/05/24 13:14:35;;;;;;;;;;;19.00;74.70;;;;;;5067048;28;19931;-73
2022/05/24 13:17:03;;;;;;;;;;;19.00;74.10;;;;;;5062711;28;20537;-73
2022/05/24 13:19:29;;;;;;;;;;;19.00;75.50;;;;;;5066058;28;19916;-73
2022/05/24 13:21:55;;;;;;;;;;;19.00;75.80;;;;;;5064090;28;19966;-73
2022/05/24 13:24:20;;;;;;;;;;;19.00;75.70;;;;;;5066693;28;19908;-74
2022/05/24 13:27:06;;;;;;;;;;;19.00;75.20;;;;;;5062394;28;19912;-73
2022/05/24 13:33:33;;;;;;;;;;;19.10;75.30;;;;;;5046139;28;19909;-73
2022/05/24 13:35:02;;;;;;;;;;;19.10;75.20;;;;;;5062974;28;19970;-73
2022/05/24 13:37:46;;;;;;;;;;;19.10;75.20;;;;;;5050851;28;19916;-73
2022/05/24 13:40:12;;;;;;;;;;;19.20;73.40;;;;;;5039550;28;19919;-73
2022/05/24 13:42:50;;;;;;;;;;;19.20;74.00;;;;;;5035276;28;19924;-73
2022/05/24 13:45:16;;;;;;;;;;;19.20;72.40;;;;;;5034434;28;19948;-73
2022/05/24 13:47:47;;;;;;;;;;;19.20;74.30;;;;;;5039296;28;20712;-73
2022/05/24 13:50:31;;;;;;;;;;;19.30;74.30;;;;;;5036624;28;19929;-73
2022/05/24 13:53:01;;;;;;;;;;;19.30;72.60;;;;;;5033871;28;20572;-73
2022/05/24 13:55:28;;;;;;;;;;;19.40;73.50;;;;;;5034534;28;19941;-73
2022/05/24 13:58:13;;;;;;;;;;;19.60;72.50;;;;;;5037105;28;19924;-73
2022/05/24 14:00:41;;;;;;;;;;;19.70;71.90;;;;;;5030975;28;19927;-73
2022/05/24 14:03:09;;;;;;;;;;;19.80;72.00;;;;;;5033826;28;19916;-73
2022/05/24 14:05:36;;;;;;;;;;;20.00;71.60;;;;;;5041397;28;19971;-73
2022/05/24 14:08:02;;;;;;;;;;;20.00;70.60;;;;;;5037531;28;19967;-73
2022/05/24 14:10:28;;;;;;;;;;;20.10;71.00;;;;;;5037502;28;20601;-73
2022/05/24 14:12:55;;;;;;;;;;;20.00;71.80;;;;;;5034902;28;20373;-73
2022/05/24 14:15:21;;;;;;;;;;;20.00;71.80;;;;;;5036733;28;19955;-73
2022/05/24 14:17:48;;;;;;;;;;;19.90;72.00;;;;;;5034086;28;20003;-73
2022/05/24 14:20:14;;;;;;;;;;;19.80;71.90;;;;;;5039085;28;20206;-73
2022/05/24 14:22:39;;;;;;;;;;;19.70;72.20;;;;;;5065885;28;20381;-73
2022/05/24 14:25:05;;;;;;;;;;;19.60;72.70;;;;;;5062613;28;20309;-73
2022/05/24 14:27:31;;;;;;;;;;;19.50;71.80;;;;;;5061246;28;20020;-73
2022/05/24 14:29:57;;;;;;;;;;;19.50;71.30;;;;;;5043032;28;20003;-73
2022/05/24 14:32:22;;;;;;;;;;;19.50;73.40;;;;;;5039474;28;20680;-74
2022/05/24 14:34:48;;;;;;;;;;;19.60;72.90;;;;;;5046812;28;19917;-72
2022/05/24 14:37:15;;;;;;;;;;;19.70;71.60;;;;;;5030805;28;19917;-73
2022/05/24 14:39:41;;;;;;;;;;;19.90;71.50;;;;;;5024173;28;19917;-74
2022/05/24 14:42:06;;;;;;;;;;;20.00;70.70;;;;;;5035260;28;19912;-73
2022/05/24 14:44:35;;;;;;;;;;;20.10;70.30;;;;;;5035397;28;19917;-73
2022/05/24 14:47:01;;;;;;;;;;;20.10;70.80;;;;;;5033800;28;20256;-74
2022/05/24 14:49:27;;;;;;;;;;;20.20;70.60;;;;;;5034780;28;19912;-73
2022/05/24 14:51:55;;;;;;;;;;;20.40;70.70;;;;;;5037592;28;19944;-73
2022/05/24 14:54:21;;;;;;;;;;;20.40;70.20;;;;;;5035175;28;19908;-73
2022/05/24 14:56:47;;;;;;;;;;;20.50;70.00;;;;;;5036953;28;19923;-73
2022/05/24 14:59:13;;;;;;;;;;;20.60;69.80;;;;;;5034110;28;19924;-73
2022/05/24 15:01:40;;;;;;;;;;;20.60;68.20;;;;;;5035548;28;20366;-73
2022/05/24 15:04:06;;;;;;;;;;;20.50;68.60;;;;;;5039022;28;19913;-73